createdAt,value
2022-11-25T00:00:37.058Z,99034.00
2022-11-25T00:03:10.970Z,99037.00
2022-11-25T00:05:37.920Z,99041.00
2022-11-25T00:08:04.968Z,99030.00
2022-11-25T00:10:37.958Z,99049.00
2022-11-25T00:13:04.991Z,99033.00
2022-11-25T00:15:38.981Z,99031.00
2022-11-25T00:18:12.957Z,99027.00
2022-11-25T00:20:39.918Z,99041.00
2022-11-25T00:23:13.178Z,99042.00
2022-11-25T00:25:40.117Z,99044.00
2022-11-25T00:28:13.976Z,99041.00
2022-11-25T00:30:41.056Z,99044.00
2022-11-25T00:33:08.169Z,99037.00
2022-11-25T00:35:42.008Z,99058.00
2022-11-25T00:38:08.980Z,99054.00
2022-11-25T00:40:42.120Z,99078.00
2022-11-25T00:43:15.936Z,99080.00
2022-11-25T00:45:50.002Z,99062.00
2022-11-25T00:48:17.022Z,99063.00
2022-11-25T00:50:50.976Z,99074.00
2022-11-25T00:53:25.003Z,99077.00
2022-11-25T00:55:51.914Z,99081.00
2022-11-25T00:58:24.963Z,99082.00
2022-11-25T01:00:58.025Z,99072.00
2022-11-25T01:03:31.960Z,99070.00
2022-11-25T01:06:15.930Z,99080.00
2022-11-25T01:08:42.969Z,99082.00
2022-11-25T01:11:12.710Z,99081.00
2022-11-25T01:13:46.005Z,99047.00
2022-11-25T01:16:20.041Z,99049.00
2022-11-25T01:18:53.980Z,99071.00
2022-11-25T01:21:31.931Z,99080.00
2022-11-25T01:24:03.945Z,99057.00
2022-11-25T01:26:37.959Z,99071.00
2022-11-25T01:29:14.010Z,99075.00
2022-11-25T01:31:41.201Z,99069.00
2022-11-25T01:34:23.024Z,99082.00
2022-11-25T01:36:56.700Z,99081.00
2022-11-25T01:39:33.057Z,99080.00
2022-11-25T01:42:07.964Z,99066.00
2022-11-25T01:44:36.009Z,99070.00
2022-11-25T01:47:28.940Z,99086.00
2022-11-25T01:50:06.473Z,99098.00
2022-11-25T01:52:42.962Z,99087.00
2022-11-25T01:55:26.260Z,99073.00
2022-11-25T01:58:18.990Z,99094.00
2022-11-25T02:00:46.169Z,99099.00
2022-11-25T02:03:19.994Z,99101.00
2022-11-25T02:05:59.132Z,99092.00
2022-11-25T02:08:32.987Z,99103.00
2022-11-25T02:11:01.160Z,99100.00
2022-11-25T02:13:35.092Z,99092.00
2022-11-25T02:16:02.238Z,99083.00
2022-11-25T02:18:29.286Z,99095.00
2022-11-25T02:21:03.007Z,99088.00
2022-11-25T02:24:21.027Z,99096.00
2022-11-25T02:26:48.129Z,99115.00
2022-11-25T02:29:21.980Z,99096.00
2022-11-25T02:31:50.388Z,99104.00
2022-11-25T02:34:23.982Z,99101.00
2022-11-25T02:36:50.940Z,99097.00
2022-11-25T02:39:23.997Z,99106.00
2022-11-25T02:42:00.985Z,99115.00
2022-11-25T02:44:27.997Z,99106.00
2022-11-25T02:46:54.985Z,99099.00
2022-11-25T02:49:28.012Z,99106.00
2022-11-25T02:52:01.081Z,99095.00
2022-11-25T02:54:28.056Z,99095.00
2022-11-25T02:57:01.048Z,99074.00
2022-11-25T02:59:28.024Z,99108.00
2022-11-25T03:02:01.096Z,99113.00
2022-11-25T03:04:28.149Z,99112.00
2022-11-25T03:07:01.986Z,99125.00
2022-11-25T03:09:28.999Z,99117.00
2022-11-25T03:11:55.954Z,99106.00
2022-11-25T03:14:29.084Z,99098.00
2022-11-25T03:16:56.170Z,99118.00
2022-11-25T03:19:30.072Z,99111.00
2022-11-25T03:22:02.982Z,99093.00
2022-11-25T03:24:30.074Z,99108.00
2022-11-25T03:26:57.092Z,99092.00
2022-11-25T03:29:30.014Z,99080.00
2022-11-25T03:32:06.795Z,99082.00
2022-11-25T03:34:36.656Z,99115.00
2022-11-25T03:37:10.090Z,99116.00
2022-11-25T03:39:37.082Z,99123.00
2022-11-25T03:42:04.173Z,99121.00
2022-11-25T03:44:38.251Z,99108.00
2022-11-25T03:47:05.380Z,99126.00
2022-11-25T03:49:39.050Z,99119.00
2022-11-25T03:52:05.987Z,99124.00
2022-11-25T03:54:39.157Z,99122.00
2022-11-25T03:57:06.248Z,99114.00
2022-11-25T03:59:40.042Z,99136.00
2022-11-25T04:02:07.001Z,99116.00
2022-11-25T04:04:34.252Z,99117.00
2022-11-25T04:07:08.062Z,99137.00
2022-11-25T04:09:40.995Z,99131.00
2022-11-25T04:12:16.015Z,99138.00
2022-11-25T04:14:42.995Z,99130.00
2022-11-25T04:17:16.123Z,99140.00
2022-11-25T04:19:43.082Z,99130.00
2022-11-25T04:22:17.085Z,99143.00
2022-11-25T04:24:51.061Z,99147.00
2022-11-25T04:27:24.012Z,99151.00
2022-11-25T04:29:50.964Z,99136.00
2022-11-25T04:32:24.030Z,99145.00
2022-11-25T04:34:50.974Z,99136.00
2022-11-25T04:37:24.097Z,99127.00
2022-11-25T04:39:58.057Z,99148.00
2022-11-25T04:42:31.148Z,99144.00
2022-11-25T04:45:21.303Z,99160.00
2022-11-25T04:47:53.036Z,99166.00
2022-11-25T04:50:22.156Z,99159.00
2022-11-25T04:52:49.245Z,99164.00
2022-11-25T04:55:23.045Z,99174.00
2022-11-25T04:57:50.056Z,99175.00
2022-11-25T05:00:24.060Z,99184.00
2022-11-25T05:02:51.097Z,99168.00
2022-11-25T05:05:25.060Z,99174.00
2022-11-25T05:07:52.154Z,99175.00
2022-11-25T05:10:26.159Z,99147.00
2022-11-25T05:12:53.216Z,99187.00
2022-11-25T05:15:27.159Z,99181.00
2022-11-25T05:17:54.084Z,99167.00
2022-11-25T05:20:27.161Z,99179.00
2022-11-25T05:22:54.168Z,99182.00
2022-11-25T05:25:21.043Z,99193.00
2022-11-25T05:27:54.118Z,99189.00
2022-11-25T05:30:21.014Z,99193.00
2022-11-25T05:32:54.155Z,99174.00
2022-11-25T05:35:28.094Z,99215.00
2022-11-25T05:37:55.064Z,99198.00
2022-11-25T05:40:21.996Z,99208.00
2022-11-25T05:42:55.115Z,99205.00
2022-11-25T05:45:22.160Z,99214.00
2022-11-25T05:47:49.208Z,99214.00
2022-11-25T05:50:23.118Z,99193.00
2022-11-25T05:52:56.118Z,99218.00
2022-11-25T05:55:23.078Z,99217.00
2022-11-25T05:57:50.057Z,99215.00
2022-11-25T06:00:26.795Z,99209.00
2022-11-25T06:02:54.100Z,99205.00
2022-11-25T06:05:21.291Z,99222.00
2022-11-25T06:07:55.243Z,99208.00
2022-11-25T06:10:22.200Z,99202.00
2022-11-25T06:12:56.098Z,99211.00
2022-11-25T06:15:29.104Z,99220.00
2022-11-25T06:17:56.175Z,99212.00
2022-11-25T06:20:30.120Z,99216.00
2022-11-25T06:22:58.433Z,99219.00
2022-11-25T06:25:32.123Z,99226.00
2022-11-25T06:28:12.397Z,99211.00
2022-11-25T06:30:46.131Z,99233.00
2022-11-25T06:33:19.080Z,99223.00
2022-11-25T06:35:52.080Z,99235.00
2022-11-25T06:38:19.000Z,99251.00
2022-11-25T06:40:54.119Z,99221.00
2022-11-25T06:43:30.095Z,99237.00
2022-11-25T06:46:03.376Z,99253.00
2022-11-25T06:48:37.092Z,99236.00
2022-11-25T06:51:06.714Z,99260.00
2022-11-25T06:53:34.019Z,99254.00
2022-11-25T06:56:27.116Z,99231.00
2022-11-25T06:58:54.702Z,99270.00
2022-11-25T07:01:33.124Z,99254.00
2022-11-25T07:04:02.570Z,99276.00
2022-11-25T07:06:29.914Z,99275.00
2022-11-25T07:09:03.095Z,99272.00
2022-11-25T07:11:39.133Z,99264.00
2022-11-25T07:14:09.872Z,99251.00
2022-11-25T07:16:45.153Z,99270.00
2022-11-25T07:19:20.085Z,99284.00
2022-11-25T07:21:46.965Z,99277.00
2022-11-25T07:24:22.143Z,99281.00
2022-11-25T07:26:49.007Z,99270.00
2022-11-25T07:32:10.907Z,99282.00
2022-11-25T07:34:38.200Z,99281.00
2022-11-25T07:37:18.162Z,99281.00
2022-11-25T07:39:45.045Z,99276.00
2022-11-25T07:42:18.164Z,99269.00
2022-11-25T07:44:45.003Z,99289.00
2022-11-25T07:47:18.140Z,99289.00
2022-11-25T07:49:44.998Z,99296.00
2022-11-25T07:52:18.147Z,99297.00
2022-11-25T07:54:52.139Z,99307.00
2022-11-25T07:57:19.007Z,99308.00
2022-11-25T07:59:45.895Z,99308.00
2022-11-25T08:02:19.137Z,99312.00
2022-11-25T08:04:46.021Z,99314.00
2022-11-25T08:07:19.179Z,99310.00
2022-11-25T08:09:46.108Z,99296.00
2022-11-25T08:12:19.159Z,99299.00
2022-11-25T08:14:52.106Z,99293.00
2022-11-25T08:17:18.968Z,99312.00
2022-11-25T08:19:52.122Z,99311.00
2022-11-25T08:22:19.078Z,99310.00
2022-11-25T08:24:52.113Z,99308.00
2022-11-25T08:27:19.036Z,99320.00
2022-11-25T08:29:52.169Z,99331.00
2022-11-25T08:32:19.121Z,99322.00
2022-11-25T08:34:52.183Z,99326.00
2022-11-25T08:37:26.212Z,99293.00
2022-11-25T08:39:53.848Z,99311.00
2022-11-25T08:42:29.141Z,99329.00
2022-11-25T08:44:56.288Z,99322.00
2022-11-25T08:47:30.105Z,99329.00
2022-11-25T08:50:03.223Z,99332.00
2022-11-25T08:52:36.122Z,99332.00
2022-11-25T08:55:02.973Z,99321.00
2022-11-25T08:57:29.890Z,99330.00
2022-11-25T09:00:03.134Z,99331.00
2022-11-25T09:02:30.040Z,99324.00
2022-11-25T09:04:56.953Z,99327.00
2022-11-25T09:07:31.013Z,99331.00
2022-11-25T09:09:58.425Z,99320.00
2022-11-25T09:12:32.172Z,99326.00
2022-11-25T09:14:59.049Z,99333.00
2022-11-25T09:17:32.210Z,99342.00
2022-11-25T09:19:59.121Z,99332.00
2022-11-25T09:22:32.201Z,99318.00
2022-11-25T09:24:59.129Z,99318.00
2022-11-25T09:27:32.160Z,99325.00
2022-11-25T09:29:59.096Z,99333.00
2022-11-25T09:32:25.993Z,99323.00
2022-11-25T09:34:59.375Z,99329.00
2022-11-25T09:37:33.214Z,99336.00
2022-11-25T09:40:00.139Z,99329.00
2022-11-25T09:42:47.161Z,99336.00
2022-11-25T09:45:29.190Z,99327.00
2022-11-25T09:48:30.125Z,99332.00
2022-11-25T09:51:15.156Z,99331.00
2022-11-25T09:53:48.070Z,99328.00
2022-11-25T09:56:36.211Z,99349.00
2022-11-25T09:59:27.021Z,99345.00
2022-11-25T10:02:05.251Z,99332.00
2022-11-25T10:04:40.801Z,99332.00
2022-11-25T10:07:21.219Z,99327.00
2022-11-25T10:09:48.135Z,99331.00
2022-11-25T10:12:40.230Z,99323.00
2022-11-25T10:15:15.634Z,99326.00
2022-11-25T10:17:56.160Z,99321.00
2022-11-25T10:20:25.908Z,99318.00
2022-11-25T10:23:03.214Z,99325.00
2022-11-25T10:25:46.224Z,99308.00
2022-11-25T10:28:31.027Z,99323.00
2022-11-25T10:31:26.249Z,99331.00
2022-11-25T10:34:04.196Z,99322.00
2022-11-25T10:36:43.262Z,99326.00
2022-11-25T10:39:30.246Z,99338.00
2022-11-25T10:42:11.915Z,99333.00
2022-11-25T10:44:47.281Z,99336.00
2022-11-25T10:47:40.256Z,99342.00
2022-11-25T10:50:37.362Z,99336.00
2022-11-25T10:53:21.269Z,99343.00
2022-11-25T10:56:20.906Z,99329.00
2022-11-25T10:58:54.279Z,99337.00
2022-11-25T11:01:22.835Z,99316.00
2022-11-25T11:04:17.247Z,99320.00
2022-11-25T11:06:54.240Z,99309.00
2022-11-25T11:09:47.234Z,99306.00
2022-11-25T11:12:29.040Z,99293.00
2022-11-25T11:15:31.264Z,99308.00
2022-11-25T11:18:00.580Z,99307.00
2022-11-25T11:20:36.231Z,99299.00
2022-11-25T11:23:10.014Z,99293.00
2022-11-25T11:25:48.255Z,99298.00
2022-11-25T11:28:28.380Z,99289.00
2022-11-25T11:31:30.304Z,99288.00
2022-11-25T11:34:33.837Z,99287.00
2022-11-25T11:37:31.313Z,99289.00
2022-11-25T11:40:19.737Z,99289.00
2022-11-25T11:43:12.255Z,99281.00
2022-11-25T11:46:16.302Z,99289.00
2022-11-25T11:49:11.247Z,99282.00
2022-11-25T11:52:06.232Z,99266.00
2022-11-25T11:54:46.671Z,99261.00
2022-11-25T11:58:03.273Z,99249.00
2022-11-25T12:00:32.160Z,99232.00
2022-11-25T12:03:20.314Z,99245.00
2022-11-25T12:05:47.246Z,99238.00
2022-11-25T12:08:48.266Z,99226.00
2022-11-25T12:11:30.065Z,99227.00
2022-11-25T12:14:11.295Z,99217.00
2022-11-25T12:16:55.247Z,99211.00
2022-11-25T12:19:54.238Z,99202.00
2022-11-25T12:22:32.243Z,99203.00
2022-11-25T12:25:08.306Z,99206.00
2022-11-25T12:27:44.918Z,99204.00
2022-11-25T12:30:29.281Z,99194.00
2022-11-25T12:33:31.304Z,99208.00
2022-11-25T12:36:15.294Z,99218.00
2022-11-25T12:38:50.980Z,99205.00
2022-11-25T12:42:00.254Z,99199.00
2022-11-25T12:45:17.250Z,99206.00
2022-11-25T12:47:51.253Z,99198.00
2022-11-25T12:51:02.777Z,99197.00
2022-11-25T12:54:09.285Z,99192.00
2022-11-25T12:56:50.990Z,99193.00
2022-11-25T12:59:43.317Z,99194.00
2022-11-25T13:02:28.384Z,99201.00
2022-11-25T13:05:40.690Z,99193.00
2022-11-25T13:08:54.310Z,99187.00
2022-11-25T13:11:48.685Z,99185.00
2022-11-25T13:14:53.269Z,99199.00
2022-11-25T13:17:27.548Z,99192.00
2022-11-25T13:20:28.874Z,99197.00
2022-11-25T13:23:11.325Z,99195.00
2022-11-25T13:25:43.647Z,99160.00
2022-11-25T13:28:39.377Z,99189.00
2022-11-25T13:31:25.183Z,99188.00
2022-11-25T13:34:27.372Z,99188.00
2022-11-25T13:36:59.003Z,99194.00
2022-11-25T13:39:41.338Z,99176.00
2022-11-25T13:42:26.350Z,99181.00
2022-11-25T13:45:00.293Z,99187.00
2022-11-25T13:47:48.526Z,99190.00
2022-11-25T13:50:22.687Z,99185.00
2022-11-25T13:53:05.376Z,99193.00
2022-11-25T13:55:46.328Z,99178.00
2022-11-25T13:58:19.346Z,99192.00
2022-11-25T14:00:57.322Z,99187.00
2022-11-25T14:03:24.204Z,99197.00
2022-11-25T14:06:06.354Z,99190.00
2022-11-25T14:08:42.526Z,99195.00
2022-11-25T14:12:09.366Z,99176.00
2022-11-25T14:14:49.637Z,99184.00
2022-11-25T14:17:55.242Z,99183.00
2022-11-25T14:20:52.384Z,99183.00
2022-11-25T14:23:57.277Z,99180.00
2022-11-25T14:26:49.304Z,99181.00
2022-11-25T14:29:40.309Z,99178.00
2022-11-25T14:32:32.338Z,99168.00
2022-11-25T14:35:16.863Z,99180.00
2022-11-25T14:37:59.383Z,99187.00
2022-11-25T14:41:04.405Z,99180.00
2022-11-25T14:43:31.345Z,99178.00
2022-11-25T14:46:21.476Z,99185.00
2022-11-25T14:48:57.297Z,99180.00
2022-11-25T14:51:32.373Z,99172.00
2022-11-25T14:53:59.277Z,99191.00
2022-11-25T14:56:31.756Z,99193.00
2022-11-25T14:59:05.432Z,99201.00
2022-11-25T15:01:34.372Z,99199.00
2022-11-25T15:04:22.466Z,99215.00
2022-11-25T15:07:04.341Z,99214.00
2022-11-25T15:09:37.465Z,99217.00
2022-11-25T15:12:13.374Z,99203.00
2022-11-25T15:14:57.406Z,99207.00
2022-11-25T15:17:38.371Z,99211.00
2022-11-25T15:20:15.214Z,99215.00
2022-11-25T15:22:58.349Z,99215.00
2022-11-25T15:25:31.357Z,99232.00
2022-11-25T15:28:04.387Z,99237.00
2022-11-25T15:30:37.372Z,99234.00
2022-11-25T15:33:10.418Z,99225.00
2022-11-25T15:35:37.376Z,99233.00
2022-11-25T15:38:52.409Z,99234.00
2022-11-25T15:41:34.761Z,99237.00
2022-11-25T15:44:10.352Z,99233.00
2022-11-25T15:46:37.239Z,99233.00
2022-11-25T15:49:13.377Z,99226.00
2022-11-25T15:51:43.450Z,99244.00
2022-11-25T15:54:13.214Z,99239.00
2022-11-25T15:56:51.711Z,99223.00
2022-11-25T16:00:02.399Z,99224.00
2022-11-25T16:02:36.540Z,99242.00
2022-11-25T16:05:19.434Z,99245.00
2022-11-25T16:07:52.524Z,99238.00
2022-11-25T16:10:55.420Z,99248.00
2022-11-25T16:13:22.951Z,99236.00
2022-11-25T16:15:58.439Z,99245.00
2022-11-25T16:19:04.191Z,99243.00
2022-11-25T16:22:00.462Z,99237.00
2022-11-25T16:25:02.384Z,99247.00
2022-11-25T16:27:36.468Z,99237.00
2022-11-25T16:30:06.426Z,99238.00
2022-11-25T16:32:40.437Z,99234.00
2022-11-25T16:35:23.389Z,99215.00
2022-11-25T16:37:50.349Z,99243.00
2022-11-25T16:40:18.006Z,99244.00
2022-11-25T16:42:54.397Z,99241.00
2022-11-25T16:45:26.629Z,99240.00
2022-11-25T16:48:00.412Z,99240.00
2022-11-25T16:50:33.445Z,99248.00
2022-11-25T16:53:06.451Z,99253.00
2022-11-25T16:55:39.413Z,99246.00
2022-11-25T16:58:21.436Z,99252.00
2022-11-25T17:00:57.517Z,99235.00
2022-11-25T17:03:31.435Z,99247.00
2022-11-25T17:05:58.344Z,99251.00
2022-11-25T17:08:31.531Z,99247.00
2022-11-25T17:10:58.456Z,99263.00
2022-11-25T17:13:31.486Z,99262.00
2022-11-25T17:16:04.538Z,99259.00
2022-11-25T17:18:31.644Z,99267.00
2022-11-25T17:21:05.448Z,99256.00
2022-11-25T17:23:32.356Z,99267.00
2022-11-25T17:26:05.421Z,99268.00
2022-11-25T17:28:32.346Z,99274.00
2022-11-25T17:30:59.352Z,99282.00
2022-11-25T17:33:32.446Z,99265.00
2022-11-25T17:36:05.449Z,99277.00
2022-11-25T17:38:32.489Z,99259.00
2022-11-25T17:41:05.523Z,99270.00
2022-11-25T17:43:34.753Z,99276.00
2022-11-25T17:46:08.535Z,99286.00
2022-11-25T17:48:35.531Z,99291.00
2022-11-25T17:51:08.489Z,99296.00
2022-11-25T17:53:36.008Z,99295.00
2022-11-25T17:56:09.444Z,99307.00
2022-11-25T17:58:36.342Z,99306.00
2022-11-25T18:01:09.555Z,99315.00
2022-11-25T18:03:36.627Z,99315.00
2022-11-25T18:06:10.494Z,99327.00
2022-11-25T18:08:37.478Z,99325.00
2022-11-25T18:11:12.483Z,99327.00
2022-11-25T18:13:46.459Z,99328.00
2022-11-25T18:16:26.539Z,99326.00
2022-11-25T18:18:53.499Z,99330.00
2022-11-25T18:21:26.524Z,99333.00
2022-11-25T18:23:53.887Z,99342.00
2022-11-25T18:26:20.867Z,99328.00
2022-11-25T18:28:54.504Z,99352.00
2022-11-25T18:31:27.374Z,99355.00
2022-11-25T18:34:00.751Z,99350.00
2022-11-25T18:36:27.721Z,99367.00
2022-11-25T18:39:08.456Z,99359.00
2022-11-25T18:41:35.316Z,99352.00
2022-11-25T18:44:02.310Z,99389.00
2022-11-25T18:46:38.556Z,99360.00
2022-11-25T18:49:19.463Z,99388.00
2022-11-25T18:51:53.241Z,99390.00
2022-11-25T18:54:26.529Z,99381.00
2022-11-25T18:56:53.465Z,99381.00
2022-11-25T18:59:40.549Z,99372.00
2022-11-25T19:02:23.282Z,99403.00
2022-11-25T19:04:56.564Z,99394.00
2022-11-25T19:07:30.565Z,99403.00
2022-11-25T19:09:57.559Z,99411.00
2022-11-25T19:12:24.645Z,99398.00
2022-11-25T19:14:58.649Z,99416.00
2022-11-25T19:17:32.553Z,99410.00
2022-11-25T19:20:05.584Z,99397.00
2022-11-25T19:22:39.541Z,99435.00
2022-11-25T19:25:06.586Z,99418.00
2022-11-25T19:27:34.941Z,99426.00
2022-11-25T19:30:08.505Z,99442.00
2022-11-25T19:32:41.585Z,99425.00
2022-11-25T19:35:17.567Z,99427.00
2022-11-25T19:37:44.657Z,99436.00
2022-11-25T19:40:22.561Z,99412.00
2022-11-25T19:42:55.509Z,99438.00
2022-11-25T19:45:22.507Z,99425.00
2022-11-25T19:47:57.549Z,99454.00
2022-11-25T19:50:26.769Z,99447.00
2022-11-25T19:52:53.765Z,99446.00
2022-11-25T19:55:32.545Z,99436.00
2022-11-25T19:58:05.547Z,99414.00
2022-11-25T20:00:38.585Z,99437.00
2022-11-25T20:03:20.624Z,99462.00
2022-11-25T20:05:54.561Z,99480.00
2022-11-25T20:08:29.521Z,99473.00
2022-11-25T20:11:03.541Z,99473.00
2022-11-25T20:13:30.438Z,99458.00
2022-11-25T20:16:04.639Z,99469.00
2022-11-25T20:18:31.635Z,99456.00
2022-11-25T20:21:09.600Z,99480.00
2022-11-25T20:23:45.587Z,99478.00
2022-11-25T20:26:40.924Z,99484.00
2022-11-25T20:29:30.400Z,99477.00
2022-11-25T20:31:57.930Z,99478.00
2022-11-25T20:34:31.635Z,99465.00
2022-11-25T20:37:08.611Z,99458.00
2022-11-25T20:39:42.549Z,99470.00
2022-11-25T20:42:11.577Z,99479.00
2022-11-25T20:44:38.825Z,99491.00
2022-11-25T20:47:23.608Z,99461.00
2022-11-25T20:49:50.638Z,99464.00
2022-11-25T20:52:39.677Z,99499.00
2022-11-25T20:55:30.628Z,99497.00
2022-11-25T20:57:57.665Z,99451.00
2022-11-25T21:00:33.530Z,99474.00
2022-11-25T21:03:00.426Z,99482.00
2022-11-25T21:05:33.585Z,99503.00
2022-11-25T21:08:00.613Z,99490.00
2022-11-25T21:10:37.628Z,99503.00
2022-11-25T21:13:08.707Z,99482.00
2022-11-25T21:15:42.563Z,99486.00
2022-11-25T21:18:09.634Z,99490.00
2022-11-25T21:20:37.047Z,99518.00
2022-11-25T21:23:10.599Z,99483.00
2022-11-25T21:25:37.560Z,99510.00
2022-11-25T21:28:04.733Z,99494.00
2022-11-25T21:30:38.561Z,99496.00
2022-11-25T21:33:06.133Z,99528.00
2022-11-25T21:35:40.571Z,99526.00
2022-11-25T21:38:22.591Z,99497.00
2022-11-25T21:40:58.523Z,99510.00
2022-11-25T21:43:31.835Z,99531.00
2022-11-25T21:46:13.639Z,99523.00
2022-11-25T21:48:40.676Z,99510.00
2022-11-25T21:51:19.597Z,99516.00
2022-11-25T21:53:46.497Z,99532.00
2022-11-25T21:56:26.633Z,99540.00
2022-11-25T21:58:53.783Z,99549.00
2022-11-25T22:01:28.702Z,99518.00
2022-11-25T22:03:55.651Z,99543.00
2022-11-25T22:06:31.623Z,99561.00
2022-11-25T22:08:58.623Z,99545.00
2022-11-25T22:11:40.596Z,99549.00
2022-11-25T22:14:25.391Z,99543.00
2022-11-25T22:16:58.595Z,99562.00
2022-11-25T22:19:26.403Z,99564.00
2022-11-25T22:21:59.666Z,99571.00
2022-11-25T22:24:26.585Z,99579.00
2022-11-25T22:26:59.598Z,99564.00
2022-11-25T22:29:38.593Z,99556.00
2022-11-25T22:32:12.901Z,99588.00
2022-11-25T22:34:40.115Z,99585.00
2022-11-25T22:37:31.619Z,99573.00
2022-11-25T22:39:58.527Z,99588.00
2022-11-25T22:42:34.573Z,99591.00
2022-11-25T22:45:03.230Z,99586.00
2022-11-25T22:47:50.657Z,99575.00
2022-11-25T22:50:28.623Z,99578.00
2022-11-25T22:53:02.611Z,99561.00
2022-11-25T22:55:38.580Z,99572.00
2022-11-25T22:58:11.613Z,99587.00
2022-11-25T23:00:41.859Z,99589.00
2022-11-25T23:03:40.620Z,99586.00
2022-11-25T23:06:19.609Z,99587.00
2022-11-25T23:08:52.626Z,99583.00
2022-11-25T23:11:26.614Z,99567.00
2022-11-25T23:13:53.553Z,99557.00
2022-11-25T23:16:26.640Z,99548.00
2022-11-25T23:18:53.657Z,99574.00
2022-11-25T23:21:29.580Z,99557.00
2022-11-25T23:23:56.610Z,99569.00
2022-11-25T23:26:34.890Z,99565.00
2022-11-25T23:29:02.078Z,99576.00
2022-11-25T23:31:35.672Z,99577.00
2022-11-25T23:34:09.763Z,99574.00
2022-11-25T23:36:45.365Z,99590.00
2022-11-25T23:39:27.562Z,99581.00
2022-11-25T23:41:54.571Z,99562.00
2022-11-25T23:44:35.773Z,99572.00
2022-11-25T23:47:04.937Z,99582.00
2022-11-25T23:49:44.592Z,99564.00
2022-11-25T23:52:23.034Z,99585.00
2022-11-25T23:54:56.641Z,99581.00
2022-11-25T23:57:29.865Z,99598.00
